sensor_id;sensor_type;location;lat;lon;timestamp;temperature;humidity
52879;DHT22;38747;53.140;6.498;2024-01-15T00:00:28;1.20;99.90
52879;DHT22;38747;53.140;6.498;2024-01-15T00:02:54;1.20;99.90
52879;DHT22;38747;53.140;6.498;2024-01-15T00:05:19;1.30;99.90
52879;DHT22;38747;53.140;6.498;2024-01-15T00:07:48;1.40;99.90
52879;DHT22;38747;53.140;6.498;2024-01-15T00:10:13;1.50;99.90
52879;DHT22;38747;53.140;6.498;2024-01-15T00:12:39;1.50;99.90
52879;DHT22;38747;53.140;6.498;2024-01-15T00:15:05;1.50;99.90
52879;DHT22;38747;53.140;6.498;2024-01-15T00:17:33;1.50;99.90
52879;DHT22;38747;53.140;6.498;2024-01-15T00:19:59;1.60;99.90
52879;DHT22;38747;53.140;6.498;2024-01-15T00:22:25;1.50;99.90
52879;DHT22;38747;53.140;6.498;2024-01-15T00:24:51;1.50;99.90
52879;DHT22;38747;53.140;6.498;2024-01-15T00:27:17;1.50;99.90
52879;DHT22;38747;53.140;6.498;2024-01-15T00:29:43;1.40;99.90
52879;DHT22;38747;53.140;6.498;2024-01-15T00:32:08;1.40;99.90
52879;DHT22;38747;53.140;6.498;2024-01-15T00:34:34;1.40;99.90
52879;DHT22;38747;53.140;6.498;2024-01-15T00:36:59;1.40;99.90
52879;DHT22;38747;53.140;6.498;2024-01-15T00:39:25;1.40;99.90
52879;DHT22;38747;53.140;6.498;2024-01-15T00:41:51;1.20;99.90
52879;DHT22;38747;53.140;6.498;2024-01-15T00:44:16;1.20;99.90
52879;DHT22;38747;53.140;6.498;2024-01-15T00:46:45;1.20;99.90
52879;DHT22;38747;53.140;6.498;2024-01-15T00:49:12;1.10;99.90
52879;DHT22;38747;53.140;6.498;2024-01-15T00:51:38;1.10;99.90
52879;DHT22;38747;53.140;6.498;2024-01-15T00:54:04;1.10;99.90
52879;DHT22;38747;53.140;6.498;2024-01-15T00:56:30;1.10;99.90
52879;DHT22;38747;53.140;6.498;2024-01-15T00:58:55;1.10;99.90
52879;DHT22;38747;53.140;6.498;2024-01-15T01:01:21;1.10;99.90
52879;DHT22;38747;53.140;6.498;2024-01-15T01:03:46;1.10;99.90
52879;DHT22;38747;53.140;6.498;2024-01-15T01:06:12;1.00;99.90
52879;DHT22;38747;53.140;6.498;2024-01-15T01:08:39;1.10;99.90
52879;DHT22;38747;53.140;6.498;2024-01-15T01:11:04;1.10;99.90
52879;DHT22;38747;53.140;6.498;2024-01-15T01:13:32;1.10;99.90
52879;DHT22;38747;53.140;6.498;2024-01-15T01:15:58;1.10;99.90
52879;DHT22;38747;53.140;6.498;2024-01-15T01:18:23;1.00;99.90
52879;DHT22;38747;53.140;6.498;2024-01-15T01:20:49;1.00;99.90
52879;DHT22;38747;53.140;6.498;2024-01-15T01:23:15;1.00;99.90
52879;DHT22;38747;53.140;6.498;2024-01-15T01:25:40;1.10;99.90
52879;DHT22;38747;53.140;6.498;2024-01-15T01:28:06;1.10;99.90
52879;DHT22;38747;53.140;6.498;2024-01-15T01:30:31;1.20;99.90
52879;DHT22;38747;53.140;6.498;2024-01-15T01:32:57;1.20;99.90
52879;DHT22;38747;53.140;6.498;2024-01-15T01:35:23;1.30;99.90
52879;DHT22;38747;53.140;6.498;2024-01-15T01:37:48;1.30;99.90
52879;DHT22;38747;53.140;6.498;2024-01-15T01:40:14;1.30;99.90
52879;DHT22;38747;53.140;6.498;2024-01-15T01:42:39;1.30;99.90
52879;DHT22;38747;53.140;6.498;2024-01-15T01:45:05;1.30;99.90
52879;DHT22;38747;53.140;6.498;2024-01-15T01:47:31;1.30;99.90
52879;DHT22;38747;53.140;6.498;2024-01-15T01:49:57;1.30;99.90
52879;DHT22;38747;53.140;6.498;2024-01-15T01:52:23;1.20;99.90
52879;DHT22;38747;53.140;6.498;2024-01-15T01:54:49;1.20;99.90
52879;DHT22;38747;53.140;6.498;2024-01-15T01:57:16;1.20;99.90
52879;DHT22;38747;53.140;6.498;2024-01-15T01:59:43;1.20;99.90
52879;DHT22;38747;53.140;6.498;2024-01-15T02:02:09;1.20;99.90
52879;DHT22;38747;53.140;6.498;2024-01-15T02:04:36;1.20;99.90
52879;DHT22;38747;53.140;6.498;2024-01-15T02:07:02;1.20;99.90
52879;DHT22;38747;53.140;6.498;2024-01-15T02:09:31;1.20;99.90
52879;DHT22;38747;53.140;6.498;2024-01-15T02:11:57;1.30;99.90
52879;DHT22;38747;53.140;6.498;2024-01-15T02:14:23;1.30;99.90
52879;DHT22;38747;53.140;6.498;2024-01-15T02:16:49;1.20;99.90
52879;DHT22;38747;53.140;6.498;2024-01-15T02:19:18;1.20;99.90
52879;DHT22;38747;53.140;6.498;2024-01-15T02:21:44;1.20;99.90
52879;DHT22;38747;53.140;6.498;2024-01-15T02:24:10;1.10;99.90
52879;DHT22;38747;53.140;6.498;2024-01-15T02:26:36;1.10;99.90
52879;DHT22;38747;53.140;6.498;2024-01-15T02:29:04;1.10;99.90
52879;DHT22;38747;53.140;6.498;2024-01-15T02:31:30;1.10;99.90
52879;DHT22;38747;53.140;6.498;2024-01-15T02:33:56;1.10;99.90
52879;DHT22;38747;53.140;6.498;2024-01-15T02:36:21;1.10;99.90
52879;DHT22;38747;53.140;6.498;2024-01-15T02:38:47;1.10;99.90
52879;DHT22;38747;53.140;6.498;2024-01-15T02:41:12;1.10;99.90
52879;DHT22;38747;53.140;6.498;2024-01-15T02:43:40;1.20;99.90
52879;DHT22;38747;53.140;6.498;2024-01-15T02:46:06;1.10;99.90
52879;DHT22;38747;53.140;6.498;2024-01-15T02:48:32;1.10;99.90
52879;DHT22;38747;53.140;6.498;2024-01-15T02:50:58;1.10;99.90
52879;DHT22;38747;53.140;6.498;2024-01-15T02:53:24;1.10;99.90
52879;DHT22;38747;53.140;6.498;2024-01-15T02:55:49;1.10;99.90
52879;DHT22;38747;53.140;6.498;2024-01-15T02:58:15;1.10;99.90
52879;DHT22;38747;53.140;6.498;2024-01-15T03:00:41;1.10;99.90
52879;DHT22;38747;53.140;6.498;2024-01-15T03:03:08;1.20;99.90
52879;DHT22;38747;53.140;6.498;2024-01-15T03:05:36;1.20;99.90
52879;DHT22;38747;53.140;6.498;2024-01-15T03:08:02;1.30;99.90
52879;DHT22;38747;53.140;6.498;2024-01-15T03:10:27;1.30;99.90
52879;DHT22;38747;53.140;6.498;2024-01-15T03:12:53;1.30;99.90
52879;DHT22;38747;53.140;6.498;2024-01-15T03:15:19;1.40;99.90
52879;DHT22;38747;53.140;6.498;2024-01-15T03:17:44;1.30;99.90
52879;DHT22;38747;53.140;6.498;2024-01-15T03:20:10;1.20;99.90
52879;DHT22;38747;53.140;6.498;2024-01-15T03:22:36;1.10;99.90
52879;DHT22;38747;53.140;6.498;2024-01-15T03:25:03;1.10;99.90
52879;DHT22;38747;53.140;6.498;2024-01-15T03:27:29;1.00;99.90
52879;DHT22;38747;53.140;6.498;2024-01-15T03:29:54;1.10;99.90
52879;DHT22;38747;53.140;6.498;2024-01-15T03:32:20;1.10;99.90
52879;DHT22;38747;53.140;6.498;2024-01-15T03:34:46;1.10;99.90
52879;DHT22;38747;53.140;6.498;2024-01-15T03:37:13;1.10;99.90
52879;DHT22;38747;53.140;6.498;2024-01-15T03:39:38;1.10;99.90
52879;DHT22;38747;53.140;6.498;2024-01-15T03:42:04;1.10;99.90
52879;DHT22;38747;53.140;6.498;2024-01-15T03:44:30;1.00;99.90
52879;DHT22;38747;53.140;6.498;2024-01-15T03:46:55;1.00;99.90
52879;DHT22;38747;53.140;6.498;2024-01-15T03:49:21;1.10;99.90
52879;DHT22;38747;53.140;6.498;2024-01-15T03:51:46;1.30;99.90
52879;DHT22;38747;53.140;6.498;2024-01-15T03:54:12;1.30;99.90
52879;DHT22;38747;53.140;6.498;2024-01-15T03:56:38;1.30;99.90
52879;DHT22;38747;53.140;6.498;2024-01-15T03:59:03;1.30;99.90
52879;DHT22;38747;53.140;6.498;2024-01-15T04:01:29;1.30;99.90
52879;DHT22;38747;53.140;6.498;2024-01-15T04:03:55;1.30;99.90
52879;DHT22;38747;53.140;6.498;2024-01-15T04:06:20;1.30;99.90
52879;DHT22;38747;53.140;6.498;2024-01-15T04:08:46;1.40;99.90
52879;DHT22;38747;53.140;6.498;2024-01-15T04:11:12;1.50;99.90
52879;DHT22;38747;53.140;6.498;2024-01-15T04:13:37;1.60;99.90
52879;DHT22;38747;53.140;6.498;2024-01-15T04:16:03;1.60;99.90
52879;DHT22;38747;53.140;6.498;2024-01-15T04:18:29;1.70;99.90
52879;DHT22;38747;53.140;6.498;2024-01-15T04:20:54;1.80;99.90
52879;DHT22;38747;53.140;6.498;2024-01-15T04:23:20;1.70;99.90
52879;DHT22;38747;53.140;6.498;2024-01-15T04:25:46;1.50;99.90
52879;DHT22;38747;53.140;6.498;2024-01-15T04:28:12;1.40;99.90
52879;DHT22;38747;53.140;6.498;2024-01-15T04:30:38;1.40;99.90
52879;DHT22;38747;53.140;6.498;2024-01-15T04:33:03;1.20;99.90
52879;DHT22;38747;53.140;6.498;2024-01-15T04:35:30;1.20;99.90
52879;DHT22;38747;53.140;6.498;2024-01-15T04:37:56;1.20;99.90
52879;DHT22;38747;53.140;6.498;2024-01-15T04:40:21;1.10;99.90
52879;DHT22;38747;53.140;6.498;2024-01-15T04:42:47;1.00;99.90
52879;DHT22;38747;53.140;6.498;2024-01-15T04:45:13;0.90;99.90
52879;DHT22;38747;53.140;6.498;2024-01-15T04:47:41;0.90;99.90
52879;DHT22;38747;53.140;6.498;2024-01-15T04:50:08;0.80;99.90
52879;DHT22;38747;53.140;6.498;2024-01-15T04:52:33;0.80;99.90
52879;DHT22;38747;53.140;6.498;2024-01-15T04:54:59;0.80;99.90
52879;DHT22;38747;53.140;6.498;2024-01-15T04:57:24;0.70;99.90
52879;DHT22;38747;53.140;6.498;2024-01-15T04:59:50;0.70;99.90
52879;DHT22;38747;53.140;6.498;2024-01-15T05:02:17;0.70;99.90
52879;DHT22;38747;53.140;6.498;2024-01-15T05:04:42;0.60;99.90
52879;DHT22;38747;53.140;6.498;2024-01-15T05:07:08;0.60;99.90
52879;DHT22;38747;53.140;6.498;2024-01-15T05:09:33;0.60;99.90
52879;DHT22;38747;53.140;6.498;2024-01-15T05:11:59;0.60;99.90
52879;DHT22;38747;53.140;6.498;2024-01-15T05:14:28;0.50;99.90
52879;DHT22;38747;53.140;6.498;2024-01-15T05:16:53;0.50;99.90
52879;DHT22;38747;53.140;6.498;2024-01-15T05:19:19;0.50;99.90
52879;DHT22;38747;53.140;6.498;2024-01-15T05:21:44;0.50;99.90
52879;DHT22;38747;53.140;6.498;2024-01-15T05:24:10;0.50;99.90
52879;DHT22;38747;53.140;6.498;2024-01-15T05:26:36;0.60;99.90
52879;DHT22;38747;53.140;6.498;2024-01-15T05:29:01;0.60;99.90
52879;DHT22;38747;53.140;6.498;2024-01-15T05:31:27;0.60;99.90
52879;DHT22;38747;53.140;6.498;2024-01-15T05:33:53;0.60;99.90
52879;DHT22;38747;53.140;6.498;2024-01-15T05:36:19;0.60;99.90
52879;DHT22;38747;53.140;6.498;2024-01-15T05:38:44;0.60;99.90
52879;DHT22;38747;53.140;6.498;2024-01-15T05:41:10;0.60;99.90
52879;DHT22;38747;53.140;6.498;2024-01-15T05:43:35;0.50;99.90
52879;DHT22;38747;53.140;6.498;2024-01-15T05:46:01;0.50;99.90
52879;DHT22;38747;53.140;6.498;2024-01-15T05:48:26;0.50;99.90
52879;DHT22;38747;53.140;6.498;2024-01-15T05:50:55;0.50;99.90
52879;DHT22;38747;53.140;6.498;2024-01-15T05:53:21;0.60;99.90
52879;DHT22;38747;53.140;6.498;2024-01-15T05:55:46;0.50;99.90
52879;DHT22;38747;53.140;6.498;2024-01-15T05:58:12;0.50;99.90
52879;DHT22;38747;53.140;6.498;2024-01-15T06:00:37;0.50;99.90
52879;DHT22;38747;53.140;6.498;2024-01-15T06:03:03;0.60;99.90
52879;DHT22;38747;53.140;6.498;2024-01-15T06:05:29;0.50;99.90
52879;DHT22;38747;53.140;6.498;2024-01-15T06:07:56;0.60;99.90
52879;DHT22;38747;53.140;6.498;2024-01-15T06:10:22;0.60;99.90
52879;DHT22;38747;53.140;6.498;2024-01-15T06:12:51;0.60;99.90
52879;DHT22;38747;53.140;6.498;2024-01-15T06:15:16;0.60;99.90
52879;DHT22;38747;53.140;6.498;2024-01-15T06:17:42;0.60;99.90
52879;DHT22;38747;53.140;6.498;2024-01-15T06:20:08;0.60;99.90
52879;DHT22;38747;53.140;6.498;2024-01-15T06:22:38;0.70;99.90
52879;DHT22;38747;53.140;6.498;2024-01-15T06:25:07;0.70;99.90
52879;DHT22;38747;53.140;6.498;2024-01-15T06:27:32;0.70;99.90
52879;DHT22;38747;53.140;6.498;2024-01-15T06:29:58;0.70;99.90
52879;DHT22;38747;53.140;6.498;2024-01-15T06:32:24;0.60;99.90
52879;DHT22;38747;53.140;6.498;2024-01-15T06:34:49;0.70;99.90
52879;DHT22;38747;53.140;6.498;2024-01-15T06:37:15;0.60;99.90
52879;DHT22;38747;53.140;6.498;2024-01-15T06:39:41;0.60;99.90
52879;DHT22;38747;53.140;6.498;2024-01-15T06:42:06;0.60;99.90
52879;DHT22;38747;53.140;6.498;2024-01-15T06:44:32;0.60;99.90
52879;DHT22;38747;53.140;6.498;2024-01-15T06:46:57;0.70;99.90
52879;DHT22;38747;53.140;6.498;2024-01-15T06:49:28;0.70;99.90
52879;DHT22;38747;53.140;6.498;2024-01-15T06:51:54;0.70;99.90
52879;DHT22;38747;53.140;6.498;2024-01-15T06:54:20;0.60;99.90
52879;DHT22;38747;53.140;6.498;2024-01-15T06:56:47;0.60;99.90
52879;DHT22;38747;53.140;6.498;2024-01-15T06:59:13;0.50;99.90
52879;DHT22;38747;53.140;6.498;2024-01-15T07:01:38;0.50;99.90
52879;DHT22;38747;53.140;6.498;2024-01-15T07:04:04;0.50;99.90
52879;DHT22;38747;53.140;6.498;2024-01-15T07:06:29;0.50;99.90
52879;DHT22;38747;53.140;6.498;2024-01-15T07:08:56;0.50;99.90
52879;DHT22;38747;53.140;6.498;2024-01-15T07:11:22;0.50;99.90
52879;DHT22;38747;53.140;6.498;2024-01-15T07:13:47;0.60;99.90
52879;DHT22;38747;53.140;6.498;2024-01-15T07:16:13;0.60;99.90
52879;DHT22;38747;53.140;6.498;2024-01-15T07:18:39;0.60;99.90
52879;DHT22;38747;53.140;6.498;2024-01-15T07:21:04;0.60;99.90
52879;DHT22;38747;53.140;6.498;2024-01-15T07:23:31;0.50;99.90
52879;DHT22;38747;53.140;6.498;2024-01-15T07:25:57;0.50;99.90
52879;DHT22;38747;53.140;6.498;2024-01-15T07:28:22;0.50;99.90
52879;DHT22;38747;53.140;6.498;2024-01-15T07:30:48;0.50;99.90
52879;DHT22;38747;53.140;6.498;2024-01-15T07:33:14;0.50;99.90
52879;DHT22;38747;53.140;6.498;2024-01-15T07:35:39;0.50;99.90
52879;DHT22;38747;53.140;6.498;2024-01-15T07:38:05;0.40;99.90
52879;DHT22;38747;53.140;6.498;2024-01-15T07:40:31;0.50;99.90
52879;DHT22;38747;53.140;6.498;2024-01-15T07:42:57;0.50;99.90
52879;DHT22;38747;53.140;6.498;2024-01-15T07:45:23;0.50;99.90
52879;DHT22;38747;53.140;6.498;2024-01-15T07:47:49;0.50;99.90
52879;DHT22;38747;53.140;6.498;2024-01-15T07:50:14;0.50;99.90
52879;DHT22;38747;53.140;6.498;2024-01-15T07:52:40;0.60;99.90
52879;DHT22;38747;53.140;6.498;2024-01-15T07:55:07;0.60;99.90
52879;DHT22;38747;53.140;6.498;2024-01-15T07:57:33;0.60;99.90
52879;DHT22;38747;53.140;6.498;2024-01-15T07:59:59;0.60;99.90
52879;DHT22;38747;53.140;6.498;2024-01-15T08:02:24;0.60;99.90
52879;DHT22;38747;53.140;6.498;2024-01-15T08:04:53;0.60;99.90
52879;DHT22;38747;53.140;6.498;2024-01-15T08:07:21;0.70;99.90
52879;DHT22;38747;53.140;6.498;2024-01-15T08:09:47;0.70;99.90
52879;DHT22;38747;53.140;6.498;2024-01-15T08:12:13;0.60;99.90
52879;DHT22;38747;53.140;6.498;2024-01-15T08:14:41;0.70;99.90
52879;DHT22;38747;53.140;6.498;2024-01-15T08:17:07;0.60;99.90
52879;DHT22;38747;53.140;6.498;2024-01-15T08:19:32;0.60;99.90
52879;DHT22;38747;53.140;6.498;2024-01-15T08:21:58;0.60;99.90
52879;DHT22;38747;53.140;6.498;2024-01-15T08:24:24;0.60;99.90
52879;DHT22;38747;53.140;6.498;2024-01-15T08:26:50;0.60;99.90
52879;DHT22;38747;53.140;6.498;2024-01-15T08:29:15;0.60;99.90
52879;DHT22;38747;53.140;6.498;2024-01-15T08:31:41;0.60;99.90
52879;DHT22;38747;53.140;6.498;2024-01-15T08:34:07;0.60;99.90
52879;DHT22;38747;53.140;6.498;2024-01-15T08:36:33;0.60;99.90
52879;DHT22;38747;53.140;6.498;2024-01-15T08:39:00;0.70;99.90
52879;DHT22;38747;53.140;6.498;2024-01-15T08:41:26;0.70;99.90
52879;DHT22;38747;53.140;6.498;2024-01-15T08:43:54;0.80;99.90
52879;DHT22;38747;53.140;6.498;2024-01-15T08:46:19;0.90;99.90
52879;DHT22;38747;53.140;6.498;2024-01-15T08:48:45;0.90;99.90
52879;DHT22;38747;53.140;6.498;2024-01-15T08:51:11;1.00;99.90
52879;DHT22;38747;53.140;6.498;2024-01-15T08:53:37;1.00;99.90
52879;DHT22;38747;53.140;6.498;2024-01-15T08:56:02;1.10;99.90
52879;DHT22;38747;53.140;6.498;2024-01-15T08:58:30;1.10;99.90
52879;DHT22;38747;53.140;6.498;2024-01-15T09:00:58;1.20;99.90
52879;DHT22;38747;53.140;6.498;2024-01-15T09:03:24;1.30;99.90
52879;DHT22;38747;53.140;6.498;2024-01-15T09:05:52;1.40;99.90
52879;DHT22;38747;53.140;6.498;2024-01-15T09:08:18;1.40;99.90
52879;DHT22;38747;53.140;6.498;2024-01-15T09:10:45;1.40;99.90
52879;DHT22;38747;53.140;6.498;2024-01-15T09:13:11;1.40;99.90
52879;DHT22;38747;53.140;6.498;2024-01-15T09:15:36;1.40;99.90
52879;DHT22;38747;53.140;6.498;2024-01-15T09:18:02;1.40;99.90
52879;DHT22;38747;53.140;6.498;2024-01-15T09:20:28;1.30;99.90
52879;DHT22;38747;53.140;6.498;2024-01-15T09:22:53;1.30;99.90
52879;DHT22;38747;53.140;6.498;2024-01-15T09:25:19;1.20;99.90
52879;DHT22;38747;53.140;6.498;2024-01-15T09:27:46;1.20;99.90
52879;DHT22;38747;53.140;6.498;2024-01-15T09:30:12;1.20;99.90
52879;DHT22;38747;53.140;6.498;2024-01-15T09:32:38;1.20;99.90
52879;DHT22;38747;53.140;6.498;2024-01-15T09:35:05;1.20;99.90
52879;DHT22;38747;53.140;6.498;2024-01-15T09:37:31;1.20;99.90
52879;DHT22;38747;53.140;6.498;2024-01-15T09:39:57;1.30;99.90
52879;DHT22;38747;53.140;6.498;2024-01-15T09:42:24;1.30;99.90
52879;DHT22;38747;53.140;6.498;2024-01-15T09:44:51;1.30;99.90
52879;DHT22;38747;53.140;6.498;2024-01-15T09:47:19;1.30;99.90
52879;DHT22;38747;53.140;6.498;2024-01-15T09:49:45;1.20;99.90
52879;DHT22;38747;53.140;6.498;2024-01-15T09:52:11;1.20;99.90
52879;DHT22;38747;53.140;6.498;2024-01-15T09:54:37;1.20;99.90
52879;DHT22;38747;53.140;6.498;2024-01-15T09:57:04;1.20;99.90
52879;DHT22;38747;53.140;6.498;2024-01-15T09:59:31;1.20;99.90
52879;DHT22;38747;53.140;6.498;2024-01-15T10:01:58;1.20;99.90
52879;DHT22;38747;53.140;6.498;2024-01-15T10:04:25;1.20;99.90
52879;DHT22;38747;53.140;6.498;2024-01-15T10:06:51;1.20;99.90
52879;DHT22;38747;53.140;6.498;2024-01-15T10:09:17;1.30;99.90
52879;DHT22;38747;53.140;6.498;2024-01-15T10:11:44;1.30;99.90
52879;DHT22;38747;53.140;6.498;2024-01-15T10:14:10;1.50;99.90
52879;DHT22;38747;53.140;6.498;2024-01-15T10:16:40;1.50;99.90
52879;DHT22;38747;53.140;6.498;2024-01-15T10:19:09;1.50;99.90
52879;DHT22;38747;53.140;6.498;2024-01-15T10:21:35;1.50;99.90
52879;DHT22;38747;53.140;6.498;2024-01-15T10:24:01;1.50;99.90
52879;DHT22;38747;53.140;6.498;2024-01-15T10:26:31;1.60;99.90
52879;DHT22;38747;53.140;6.498;2024-01-15T10:29:00;1.60;99.90
52879;DHT22;38747;53.140;6.498;2024-01-15T10:31:27;1.60;99.90
52879;DHT22;38747;53.140;6.498;2024-01-15T10:33:53;1.70;99.90
52879;DHT22;38747;53.140;6.498;2024-01-15T10:36:19;1.70;99.90
52879;DHT22;38747;53.140;6.498;2024-01-15T10:38:44;1.80;99.90
52879;DHT22;38747;53.140;6.498;2024-01-15T10:41:10;2.00;99.90
52879;DHT22;38747;53.140;6.498;2024-01-15T10:43:36;2.10;99.90
52879;DHT22;38747;53.140;6.498;2024-01-15T10:46:02;2.20;99.90
52879;DHT22;38747;53.140;6.498;2024-01-15T10:48:28;2.50;99.90
52879;DHT22;38747;53.140;6.498;2024-01-15T10:50:59;2.60;99.90
52879;DHT22;38747;53.140;6.498;2024-01-15T10:53:25;2.60;99.90
52879;DHT22;38747;53.140;6.498;2024-01-15T10:55:51;2.60;99.90
52879;DHT22;38747;53.140;6.498;2024-01-15T10:58:20;2.60;99.90
52879;DHT22;38747;53.140;6.498;2024-01-15T11:00:46;2.50;99.90
52879;DHT22;38747;53.140;6.498;2024-01-15T11:03:12;2.60;99.90
52879;DHT22;38747;53.140;6.498;2024-01-15T11:05:41;2.60;99.90
52879;DHT22;38747;53.140;6.498;2024-01-15T11:08:07;2.60;99.90
52879;DHT22;38747;53.140;6.498;2024-01-15T11:10:41;2.50;99.90
52879;DHT22;38747;53.140;6.498;2024-01-15T11:16:00;2.30;99.90
52879;DHT22;38747;53.140;6.498;2024-01-15T11:18:35;1.90;99.90
52879;DHT22;38747;53.140;6.498;2024-01-15T11:28:56;1.60;99.90
52879;DHT22;38747;53.140;6.498;2024-01-15T11:34:07;1.70;99.90
52879;DHT22;38747;53.140;6.498;2024-01-15T11:39:39;1.70;99.90
52879;DHT22;38747;53.140;6.498;2024-01-15T11:42:08;1.70;99.90
52879;DHT22;38747;53.140;6.498;2024-01-15T11:44:35;1.70;99.90
52879;DHT22;38747;53.140;6.498;2024-01-15T11:47:02;1.70;99.90
52879;DHT22;38747;53.140;6.498;2024-01-15T11:52:23;1.70;99.90
52879;DHT22;38747;53.140;6.498;2024-01-15T11:57:47;1.60;99.90
52879;DHT22;38747;53.140;6.498;2024-01-15T12:00:15;1.40;99.90
52879;DHT22;38747;53.140;6.498;2024-01-15T12:02:42;1.30;99.90
52879;DHT22;38747;53.140;6.498;2024-01-15T12:05:13;1.20;99.90
52879;DHT22;38747;53.140;6.498;2024-01-15T12:07:43;1.20;99.90
52879;DHT22;38747;53.140;6.498;2024-01-15T12:10:13;1.20;99.90
52879;DHT22;38747;53.140;6.498;2024-01-15T12:12:57;1.20;99.90
52879;DHT22;38747;53.140;6.498;2024-01-15T12:15:25;1.20;99.90
52879;DHT22;38747;53.140;6.498;2024-01-15T12:17:51;1.20;99.90
52879;DHT22;38747;53.140;6.498;2024-01-15T12:20:17;1.20;99.90
52879;DHT22;38747;53.140;6.498;2024-01-15T12:22:43;1.30;99.90
52879;DHT22;38747;53.140;6.498;2024-01-15T12:25:09;1.30;99.90
52879;DHT22;38747;53.140;6.498;2024-01-15T12:27:35;1.40;99.90
52879;DHT22;38747;53.140;6.498;2024-01-15T12:30:01;1.50;99.90
52879;DHT22;38747;53.140;6.498;2024-01-15T12:32:30;1.60;99.90
52879;DHT22;38747;53.140;6.498;2024-01-15T12:34:55;1.70;99.90
52879;DHT22;38747;53.140;6.498;2024-01-15T12:37:21;1.70;99.90
52879;DHT22;38747;53.140;6.498;2024-01-15T12:39:47;1.80;99.90
52879;DHT22;38747;53.140;6.498;2024-01-15T12:42:17;1.90;99.90
52879;DHT22;38747;53.140;6.498;2024-01-15T12:44:44;2.00;99.90
52879;DHT22;38747;53.140;6.498;2024-01-15T12:47:10;2.00;99.90
52879;DHT22;38747;53.140;6.498;2024-01-15T12:49:37;2.10;99.90
52879;DHT22;38747;53.140;6.498;2024-01-15T12:52:03;2.20;99.90
52879;DHT22;38747;53.140;6.498;2024-01-15T12:54:29;2.30;99.90
52879;DHT22;38747;53.140;6.498;2024-01-15T12:56:54;2.30;99.90
52879;DHT22;38747;53.140;6.498;2024-01-15T12:59:20;2.30;99.90
52879;DHT22;38747;53.140;6.498;2024-01-15T13:01:47;2.30;99.90
52879;DHT22;38747;53.140;6.498;2024-01-15T13:04:24;2.30;99.90
52879;DHT22;38747;53.140;6.498;2024-01-15T13:06:50;2.30;99.90
52879;DHT22;38747;53.140;6.498;2024-01-15T13:09:17;2.30;99.90
52879;DHT22;38747;53.140;6.498;2024-01-15T13:11:44;2.30;99.90
52879;DHT22;38747;53.140;6.498;2024-01-15T13:14:10;2.40;99.90
52879;DHT22;38747;53.140;6.498;2024-01-15T13:16:36;2.40;99.90
52879;DHT22;38747;53.140;6.498;2024-01-15T13:19:01;2.40;99.90
52879;DHT22;38747;53.140;6.498;2024-01-15T13:21:29;2.40;99.90
52879;DHT22;38747;53.140;6.498;2024-01-15T13:23:55;2.20;99.90
52879;DHT22;38747;53.140;6.498;2024-01-15T13:26:21;2.10;99.90
52879;DHT22;38747;53.140;6.498;2024-01-15T13:28:49;2.10;99.90
52879;DHT22;38747;53.140;6.498;2024-01-15T13:31:14;2.10;99.90
52879;DHT22;38747;53.140;6.498;2024-01-15T13:33:40;2.20;99.90
52879;DHT22;38747;53.140;6.498;2024-01-15T13:36:06;2.20;99.90
52879;DHT22;38747;53.140;6.498;2024-01-15T13:38:39;2.30;99.90
52879;DHT22;38747;53.140;6.498;2024-01-15T13:41:04;2.30;99.90
52879;DHT22;38747;53.140;6.498;2024-01-15T13:43:33;2.20;99.90
52879;DHT22;38747;53.140;6.498;2024-01-15T13:45:59;2.20;99.90
52879;DHT22;38747;53.140;6.498;2024-01-15T13:48:25;2.20;99.90
52879;DHT22;38747;53.140;6.498;2024-01-15T13:50:52;2.30;99.90
52879;DHT22;38747;53.140;6.498;2024-01-15T13:53:17;2.30;99.90
52879;DHT22;38747;53.140;6.498;2024-01-15T13:55:44;2.40;99.90
52879;DHT22;38747;53.140;6.498;2024-01-15T13:58:10;2.30;99.90
52879;DHT22;38747;53.140;6.498;2024-01-15T14:00:37;2.20;99.90
52879;DHT22;38747;53.140;6.498;2024-01-15T14:03:03;2.10;99.90
52879;DHT22;38747;53.140;6.498;2024-01-15T14:05:28;2.00;99.90
52879;DHT22;38747;53.140;6.498;2024-01-15T14:07:54;2.00;99.90
52879;DHT22;38747;53.140;6.498;2024-01-15T14:10:20;2.00;99.90
52879;DHT22;38747;53.140;6.498;2024-01-15T14:12:47;2.00;99.90
52879;DHT22;38747;53.140;6.498;2024-01-15T14:15:13;2.00;99.90
52879;DHT22;38747;53.140;6.498;2024-01-15T14:17:38;1.90;99.90
52879;DHT22;38747;53.140;6.498;2024-01-15T14:20:05;1.90;99.90
52879;DHT22;38747;53.140;6.498;2024-01-15T14:22:31;1.90;99.90
52879;DHT22;38747;53.140;6.498;2024-01-15T14:24:58;2.00;99.90
52879;DHT22;38747;53.140;6.498;2024-01-15T14:27:25;2.00;99.90
52879;DHT22;38747;53.140;6.498;2024-01-15T14:29:51;2.20;99.90
52879;DHT22;38747;53.140;6.498;2024-01-15T14:32:16;2.30;99.90
52879;DHT22;38747;53.140;6.498;2024-01-15T14:34:42;2.30;99.90
52879;DHT22;38747;53.140;6.498;2024-01-15T14:37:08;2.30;99.90
52879;DHT22;38747;53.140;6.498;2024-01-15T14:39:34;2.20;99.90
52879;DHT22;38747;53.140;6.498;2024-01-15T14:42:00;2.20;99.90
52879;DHT22;38747;53.140;6.498;2024-01-15T14:44:26;2.20;99.90
52879;DHT22;38747;53.140;6.498;2024-01-15T14:46:53;2.20;99.90
52879;DHT22;38747;53.140;6.498;2024-01-15T14:49:21;2.20;99.90
52879;DHT22;38747;53.140;6.498;2024-01-15T14:51:46;2.10;99.90
52879;DHT22;38747;53.140;6.498;2024-01-15T14:54:12;2.20;99.90
52879;DHT22;38747;53.140;6.498;2024-01-15T14:56:38;2.10;99.90
52879;DHT22;38747;53.140;6.498;2024-01-15T14:59:03;2.10;99.90
52879;DHT22;38747;53.140;6.498;2024-01-15T15:01:29;2.10;99.90
52879;DHT22;38747;53.140;6.498;2024-01-15T15:03:55;2.00;99.90
52879;DHT22;38747;53.140;6.498;2024-01-15T15:06:21;2.00;99.90
52879;DHT22;38747;53.140;6.498;2024-01-15T15:08:46;2.00;99.90
52879;DHT22;38747;53.140;6.498;2024-01-15T15:11:12;1.80;99.90
52879;DHT22;38747;53.140;6.498;2024-01-15T15:13:39;1.80;99.90
52879;DHT22;38747;53.140;6.498;2024-01-15T15:16:05;1.70;99.90
52879;DHT22;38747;53.140;6.498;2024-01-15T15:18:31;1.60;99.90
52879;DHT22;38747;53.140;6.498;2024-01-15T15:20:57;1.40;99.90
52879;DHT22;38747;53.140;6.498;2024-01-15T15:23:23;1.30;99.90
52879;DHT22;38747;53.140;6.498;2024-01-15T15:25:49;1.30;99.90
52879;DHT22;38747;53.140;6.498;2024-01-15T15:28:14;1.20;99.90
52879;DHT22;38747;53.140;6.498;2024-01-15T15:30:41;1.10;99.90
52879;DHT22;38747;53.140;6.498;2024-01-15T15:33:07;1.10;99.90
52879;DHT22;38747;53.140;6.498;2024-01-15T15:35:33;0.90;99.90
52879;DHT22;38747;53.140;6.498;2024-01-15T15:37:58;0.90;99.90
52879;DHT22;38747;53.140;6.498;2024-01-15T15:40:24;0.90;99.90
52879;DHT22;38747;53.140;6.498;2024-01-15T15:42:52;0.90;99.90
52879;DHT22;38747;53.140;6.498;2024-01-15T15:45:18;0.90;99.90
52879;DHT22;38747;53.140;6.498;2024-01-15T15:47:44;0.90;99.90
52879;DHT22;38747;53.140;6.498;2024-01-15T15:50:09;0.90;99.90
52879;DHT22;38747;53.140;6.498;2024-01-15T15:52:35;0.90;99.90
52879;DHT22;38747;53.140;6.498;2024-01-15T15:55:01;0.90;99.90
52879;DHT22;38747;53.140;6.498;2024-01-15T15:57:28;0.90;99.90
52879;DHT22;38747;53.140;6.498;2024-01-15T15:59:54;0.80;99.90